AirNav   TITAN Aviation Fuels
 
 566 users online  

MI32 UMMC Heliport
Ann Arbor, Michigan, USA

GOING TO ANN ARBOR?


FAA INFORMATION EFFECTIVE 15 JULY 2021

Location

FAA Identifier: MI32
Lat/Long: 42-17-07.5000N 083-43-39.3700W
42-17.125000N 083-43.656167W
42.2854167,-83.7276028
(estimated)
Elevation: 802 ft. / 244 m (estimated)
Variation: 07W (2020)
From city: 2 miles NE of ANN ARBOR, MI
Time zone: UTC -4 (UTC -5 during Standard Time)
Zip code: 48104

Heliport Operations

Heliport use: Private use, MEDICAL USE.
Activation date: 07/1989
Control tower: no
ARTCC: CLEVELAND CENTER
FSS: LANSING FLIGHT SERVICE STATION
NOTAMs facility: FDC (NOTAM-D service not available)
Attendance: CONTINUOUS
Wind indicator: yes
Segmented circle: no
Lights: ACTVT PERIMETER LGTS - 130.6.
Beacon: white-green-yellow (heliport)
Operates sunset to sunrise.

Heliport Communications

CTAF: 122.9
DETROIT APPROACH: 118.95
DETROIT DEPARTURE: 118.95
WX ASOS at ARB (4 nm S): PHONE 734-668-7173
WX ASOS at YIP (9 nm E): PHONE 734-961-6843
WX ASOS at DTW (17 nm E): PHONE 734-955-5015

Nearby radio navigation aids

VOR radial/distance  VOR name  Freq  Var
SVMr222/9.5SALEM VORTAC114.3003W
DXOr291/16.6DETROIT VOR/DME113.4006W
CRLr323/18.6CARLETON VOR/DME115.7003W

 
NDB name  Hdg/Dist  Freq  Var  ID
TECUMSEH031/16.723906WTCU - -.-. ..-
GROSSE ILE300/27.841907WRYS .-. -.-- ...
ADRIAN038/29.427806WADG .- -.. --.

Heliport Services

Runway Information

Helipad H1

Dimensions: 60 x 60 ft. / 18 x 18 m
Surface: concrete
Runway edge lights: PERI
Latitude: 42-17.125000N
Longitude: 083-43.656167W
Elevation: 802.0 ft.
Traffic pattern: leftleft

Helipad H2

Dimensions: 50 x 50 ft. / 15 x 15 m
Surface: concrete
Latitude: 42-17.109167N
Longitude: 083-43.636333W
Elevation: 802.0 ft.
Traffic pattern: leftleft

Heliport Ownership and Management from official FAA records

Ownership: Privately-owned
Owner: UNIVERSITY OF MICHIGAN MEDICAL CNTR
1500 E MEDICAL CENTER DR
ANN ARBOR, MI 48109
Phone 734-936-6045
Manager: DENISE LANDIS
1500 E MEDICAL CENTER DR, BI 208, BI 352 TC 5307
ANN ARBOR, MI 48109
Phone 734-936-6045

Heliport Operational Statistics

Aircraft based on the field: 3
Helicopters: 3
    

Additional Remarks

FOR CD CTC DETROIT APCH AT 800-499-8181.

Instrument Procedures

There are no published instrument procedures at MI32.

Some nearby airports with instrument procedures:

KARB - Ann Arbor Municipal Airport (4 nm S)
KYIP - Willow Run Airport (9 nm E)
1D2 - Canton-Plymouth-Mettetal Airport (13 nm E)
Y47 - Oakland Southwest Airport (14 nm N)
KDTW - Detroit Metro Wayne County Airport (17 nm E)
 
Loc | Ops | Rwys | IFR | FBO | Links
Com | Nav | Svcs | Stats | Notes
Area around MI32 (UMMC Heliport)
 
Road maps at: MapQuest Bing Google
 
Aerial photo
No photo
 
Sectional chart

 
Airport distance calculator
Flying to UMMC Heliport? Find the distance to fly.

From to MI32

Sunrise and sunset
Times for 31-Jul-2021
 Local
(UTC-4)
 Zulu
(UTC)
Morning civil twilight05:5609:56
Sunrise06:2810:28
Sunset20:5500:55
Evening civil twilight21:2701:27

Current date and time
Zulu (UTC)  31-Jul-2021 05:21:23
Local (UTC-4)  31-Jul-2021 01:21:23
 
METAR
KARB 
4nm S 
734-668-7173
310453Z AUTO 00000KT 10SM CLR 14/12 A3008 RMK AO2 SLP184 T01390117 402500122
KYIP 
9nm E 
310453Z 14003KT 10SM CLR 16/12 A3009 RMK AO2 SLP184 T01560122 402780156
KDTW 
18nm E 
310453Z 13004KT 10SM FEW250 17/12 A3009 RMK AO2 SLP186 T01670117 402560167
TAF
KYIP 
9nm E 
301720Z 3018/3118 36008KT P6SM SCT035 BKN045 FM310100 04004KT P6SM BKN250 FM311400 22006KT P6SM BKN200
KDTW 
18nm E 
310302Z 3103/0106 11004KT P6SM BKN250 FM311400 22006KT P6SM BKN200 FM311800 23008KT P6SM SCT050 BKN200 FM010000 24006KT P6SM BKN200
NOTAMs
Click for the latest NOTAMs
NOTAMs are issued by the DoD/FAA and will open in a separate window not controlled by AirNav.

 

 
 

Would you like to see your business listed on this page?

 If your business provides an interesting product or service to pilots, flight crews, aircraft, or users of the UMMC Heliport, you should consider listing it here.  To start the listing process, click on the button below
 
Add a business
 

Other Pages about UMMC Heliport

Update a link
 
Copyright © AirNav, LLC. All rights reserved. Privacy Policy  Contact